N91HK KHOU-KVNY
Flight info
| Callsign | N91HK |
|---|---|
| Flight time | 3h 4m |
| Altitude | 32000 |
| Route | RETYR8 JCT PEQ/N0455F400 ELP DMN Q180 BXK J212 DECAS J65 PMD JANNY5 |
| Aircraft | CL60/M-SADE3FGHIJ3J4J7P2RWXY/HB1D1 |
Departure
| Time | 2026-04-30 02:02 |
|---|---|
| Airport | William P. Hobby Airport (KHOU) |
Arrival
| Time | 2026-04-30 05:07 |
|---|---|
| Airport | Van Nuys Airport (KVNY) |
| Time | Latitude | Longitude | Altitude | Speed | Heading |
|---|---|---|---|---|---|
| 2026-04-30 01:42 | 29.64244 | -95.28700 | 48 ft | 0 kts | 1° |
| 2026-04-30 01:58 | 29.64268 | -95.28687 | 48 ft | 5 kts | 70° |
| 2026-04-30 01:58 | 29.64268 | -95.28630 | 48 ft | 7 kts | 93° |
| 2026-04-30 01:58 | 29.64267 | -95.28607 | 48 ft | 3 kts | 91° |
| 2026-04-30 01:58 | 29.64268 | -95.28578 | 48 ft | 4 kts | 88° |
| 2026-04-30 01:59 | 29.64280 | -95.28445 | 48 ft | 20 kts | 42° |
| 2026-04-30 01:59 | 29.64437 | -95.28274 | 48 ft | 37 kts | 42° |
| 2026-04-30 01:59 | 29.64627 | -95.28064 | 48 ft | 37 kts | 44° |
| 2026-04-30 02:00 | 29.64815 | -95.27854 | 48 ft | 38 kts | 43° |
| 2026-04-30 02:00 | 29.64980 | -95.27672 | 48 ft | 26 kts | 44° |
| 2026-04-30 02:00 | 29.65101 | -95.27508 | 48 ft | 27 kts | 79° |
| 2026-04-30 02:00 | 29.65182 | -95.27303 | 48 ft | 33 kts | 44° |
| 2026-04-30 02:01 | 29.65383 | -95.27081 | 48 ft | 37 kts | 46° |
| 2026-04-30 02:01 | 29.65456 | -95.26920 | 48 ft | 12 kts | 129° |
| 2026-04-30 02:01 | 29.65397 | -95.26891 | 48 ft | 11 kts | 217° |
| 2026-04-30 02:01 | 29.65151 | -95.27163 | 48 ft | 97 kts | 224° |
| 2026-04-30 02:02 | 29.64449 | -95.27946 | 100 ft | 175 kts | 225° |
| 2026-04-30 02:02 | 29.63524 | -95.29011 | 811 ft | 199 kts | 224° |
| 2026-04-30 02:02 | 29.62502 | -95.30203 | 1573 ft | 211 kts | 225° |
| 2026-04-30 02:02 | 29.61481 | -95.31362 | 2508 ft | 204 kts | 225° |
| 2026-04-30 02:03 | 29.60696 | -95.32662 | 3416 ft | 207 kts | 254° |
| 2026-04-30 02:03 | 29.60431 | -95.34305 | 4346 ft | 211 kts | 268° |
| 2026-04-30 02:03 | 29.60482 | -95.35986 | 5266 ft | 218 kts | 279° |
| 2026-04-30 02:03 | 29.60832 | -95.37725 | 6201 ft | 229 kts | 288° |
| 2026-04-30 02:04 | 29.61345 | -95.39521 | 7068 ft | 243 kts | 289° |
| 2026-04-30 02:04 | 29.61895 | -95.41430 | 7753 ft | 262 kts | 289° |
| 2026-04-30 02:04 | 29.62478 | -95.43462 | 8430 ft | 272 kts | 289° |
| 2026-04-30 02:04 | 29.63070 | -95.45543 | 9384 ft | 277 kts | 289° |
| 2026-04-30 02:05 | 29.63661 | -95.47628 | 10436 ft | 278 kts | 289° |
| 2026-04-30 02:05 | 29.64307 | -95.49889 | 10536 ft | 315 kts | 289° |
| 2026-04-30 02:05 | 29.65028 | -95.52434 | 10623 ft | 346 kts | 289° |
| 2026-04-30 02:05 | 29.65788 | -95.55115 | 11112 ft | 360 kts | 289° |
| 2026-04-30 02:06 | 29.66574 | -95.57895 | 11783 ft | 367 kts | 288° |
| 2026-04-30 02:06 | 29.67361 | -95.60690 | 12512 ft | 371 kts | 288° |
| 2026-04-30 02:06 | 29.68155 | -95.63520 | 13240 ft | 374 kts | 288° |
| 2026-04-30 02:06 | 29.68936 | -95.66313 | 14008 ft | 376 kts | 287° |
| 2026-04-30 02:07 | 29.69627 | -95.68795 | 14776 ft | 375 kts | 287° |
| 2026-04-30 02:07 | 29.70500 | -95.71937 | 15731 ft | 374 kts | 287° |
| 2026-04-30 02:07 | 29.71302 | -95.74831 | 16571 ft | 374 kts | 287° |
| 2026-04-30 02:07 | 29.72095 | -95.77703 | 17362 ft | 375 kts | 287° |
| 2026-04-30 02:08 | 29.73049 | -95.80519 | 18068 ft | 378 kts | 294° |
| 2026-04-30 02:08 | 29.74338 | -95.83181 | 18636 ft | 384 kts | 299° |
| 2026-04-30 02:08 | 29.75747 | -95.85800 | 19180 ft | 389 kts | 300° |
| 2026-04-30 02:08 | 29.77173 | -95.88468 | 19737 ft | 392 kts | 299° |
| 2026-04-30 02:09 | 29.78600 | -95.91177 | 20268 ft | 395 kts | 299° |
| 2026-04-30 02:09 | 29.80024 | -95.93893 | 20771 ft | 398 kts | 299° |
| 2026-04-30 02:09 | 29.81463 | -95.96647 | 21266 ft | 401 kts | 299° |
| 2026-04-30 02:09 | 29.82897 | -95.99397 | 21774 ft | 403 kts | 299° |
| 2026-04-30 02:10 | 29.84332 | -96.02155 | 22161 ft | 407 kts | 298° |
| 2026-04-30 02:10 | 29.85809 | -96.05005 | 22579 ft | 410 kts | 299° |
| 2026-04-30 02:10 | 29.87270 | -96.07828 | 23034 ft | 412 kts | 299° |
| 2026-04-30 02:10 | 29.88735 | -96.10664 | 23526 ft | 413 kts | 299° |
| 2026-04-30 02:11 | 29.90204 | -96.13511 | 24023 ft | 413 kts | 299° |
| 2026-04-30 02:11 | 29.91689 | -96.16395 | 24373 ft | 416 kts | 299° |
| 2026-04-30 02:11 | 29.93114 | -96.19295 | 24772 ft | 416 kts | 294° |
| 2026-04-30 02:11 | 29.93983 | -96.22479 | 25220 ft | 414 kts | 282° |
| 2026-04-30 02:12 | 29.94526 | -96.25759 | 25598 ft | 415 kts | 282° |
| 2026-04-30 02:12 | 29.95065 | -96.29028 | 26072 ft | 413 kts | 282° |
| 2026-04-30 02:12 | 29.95598 | -96.32282 | 26588 ft | 411 kts | 282° |
| 2026-04-30 02:12 | 29.96127 | -96.35534 | 27168 ft | 406 kts | 282° |
| 2026-04-30 02:13 | 29.96641 | -96.38724 | 27724 ft | 402 kts | 282° |
| 2026-04-30 02:13 | 29.97150 | -96.41898 | 28231 ft | 399 kts | 282° |
| 2026-04-30 02:13 | 29.97653 | -96.45064 | 28697 ft | 397 kts | 282° |
| 2026-04-30 02:13 | 29.98155 | -96.48221 | 29193 ft | 394 kts | 282° |
| 2026-04-30 02:14 | 29.98651 | -96.51346 | 29683 ft | 391 kts | 282° |
| 2026-04-30 02:14 | 29.99141 | -96.54449 | 30100 ft | 390 kts | 282° |
| 2026-04-30 02:14 | 29.99633 | -96.57587 | 30442 ft | 390 kts | 283° |
| 2026-04-30 02:14 | 30.00113 | -96.60683 | 30808 ft | 389 kts | 283° |
| 2026-04-30 02:15 | 30.00590 | -96.63798 | 31180 ft | 388 kts | 283° |
| 2026-04-30 02:15 | 30.01059 | -96.66867 | 31511 ft | 389 kts | 282° |
| 2026-04-30 02:15 | 30.01517 | -96.69872 | 31842 ft | 388 kts | 282° |
| 2026-04-30 02:16 | 30.02479 | -96.76157 | 31941 ft | 400 kts | 283° |
| 2026-04-30 02:16 | 30.03465 | -96.82597 | 31963 ft | 409 kts | 283° |
| 2026-04-30 02:17 | 30.04464 | -96.89151 | 32011 ft | 415 kts | 283° |
| 2026-04-30 02:17 | 30.05484 | -96.95849 | 31999 ft | 420 kts | 283° |
| 2026-04-30 02:18 | 30.06504 | -97.02579 | 32001 ft | 422 kts | 282° |
| 2026-04-30 02:18 | 30.07519 | -97.09315 | 31982 ft | 423 kts | 282° |
| 2026-04-30 02:19 | 30.08528 | -97.16040 | 31939 ft | 424 kts | 283° |
| 2026-04-30 02:19 | 30.09533 | -97.22766 | 31946 ft | 422 kts | 282° |
| 2026-04-30 02:20 | 30.10541 | -97.29533 | 31939 ft | 422 kts | 282° |
| 2026-04-30 02:20 | 30.11537 | -97.36249 | 31966 ft | 421 kts | 282° |
| 2026-04-30 02:21 | 30.12535 | -97.43008 | 31964 ft | 422 kts | 282° |
| 2026-04-30 02:21 | 30.13518 | -97.49690 | 31967 ft | 421 kts | 282° |
| 2026-04-30 02:22 | 30.14504 | -97.56411 | 31964 ft | 421 kts | 282° |
| 2026-04-30 02:22 | 30.15486 | -97.63149 | 31963 ft | 421 kts | 282° |
| 2026-04-30 02:23 | 30.16462 | -97.69850 | 31972 ft | 422 kts | 281° |
| 2026-04-30 02:23 | 30.17494 | -97.76560 | 31965 ft | 421 kts | 283° |
| 2026-04-30 02:24 | 30.18849 | -97.83262 | 31971 ft | 421 kts | 285° |
| 2026-04-30 02:24 | 30.20235 | -97.89852 | 31961 ft | 420 kts | 285° |
| 2026-04-30 02:25 | 30.21621 | -97.96486 | 31972 ft | 420 kts | 285° |
| 2026-04-30 02:25 | 30.22992 | -98.03090 | 31970 ft | 419 kts | 285° |
| 2026-04-30 02:26 | 30.24352 | -98.09667 | 31976 ft | 419 kts | 285° |
| 2026-04-30 02:26 | 30.25720 | -98.16330 | 31977 ft | 420 kts | 284° |
| 2026-04-30 02:27 | 30.27079 | -98.22970 | 31985 ft | 420 kts | 285° |
| 2026-04-30 02:27 | 30.28437 | -98.29630 | 31983 ft | 419 kts | 285° |
| 2026-04-30 02:28 | 30.29781 | -98.36243 | 31989 ft | 420 kts | 284° |
| 2026-04-30 02:28 | 30.31193 | -98.42884 | 31984 ft | 420 kts | 285° |
| 2026-04-30 02:29 | 30.32602 | -98.49475 | 32001 ft | 419 kts | 285° |
| 2026-04-30 02:29 | 30.34008 | -98.56078 | 31990 ft | 419 kts | 285° |
| 2026-04-30 02:30 | 30.35412 | -98.62689 | 31996 ft | 420 kts | 286° |
| 2026-04-30 02:30 | 30.36810 | -98.69292 | 31994 ft | 421 kts | 284° |
| 2026-04-30 02:31 | 30.38209 | -98.75916 | 31999 ft | 420 kts | 285° |
| 2026-04-30 02:31 | 30.39604 | -98.82537 | 32004 ft | 419 kts | 285° |
| 2026-04-30 02:32 | 30.40992 | -98.89156 | 31985 ft | 419 kts | 285° |
| 2026-04-30 02:32 | 30.42377 | -98.95763 | 31995 ft | 419 kts | 284° |
| 2026-04-30 02:33 | 30.43760 | -99.02382 | 31999 ft | 419 kts | 284° |
| 2026-04-30 02:33 | 30.45147 | -99.09038 | 32006 ft | 419 kts | 284° |
| 2026-04-30 02:34 | 30.46522 | -99.15668 | 32008 ft | 420 kts | 285° |
| 2026-04-30 02:34 | 30.47892 | -99.22282 | 32015 ft | 419 kts | 284° |
| 2026-04-30 02:35 | 30.49269 | -99.28953 | 32011 ft | 420 kts | 284° |
| 2026-04-30 02:35 | 30.50639 | -99.35605 | 32019 ft | 420 kts | 284° |
| 2026-04-30 02:36 | 30.52000 | -99.42232 | 32015 ft | 419 kts | 284° |
| 2026-04-30 02:36 | 30.53354 | -99.48847 | 32014 ft | 420 kts | 284° |
| 2026-04-30 02:37 | 30.54722 | -99.55542 | 32012 ft | 420 kts | 284° |
| 2026-04-30 02:37 | 30.56084 | -99.62232 | 32024 ft | 421 kts | 284° |
| 2026-04-30 02:38 | 30.57439 | -99.68902 | 32035 ft | 422 kts | 284° |
| 2026-04-30 02:38 | 30.58789 | -99.75569 | 32025 ft | 421 kts | 283° |
| 2026-04-30 02:39 | 30.60151 | -99.82251 | 32030 ft | 421 kts | 285° |
| 2026-04-30 02:39 | 30.61738 | -99.88861 | 32024 ft | 420 kts | 287° |
| 2026-04-30 02:40 | 30.63372 | -99.95378 | 32020 ft | 420 kts | 287° |
| 2026-04-30 02:40 | 30.65016 | -100.01978 | 32044 ft | 420 kts | 286° |
| 2026-04-30 02:41 | 30.66641 | -100.08528 | 32040 ft | 419 kts | 285° |
| 2026-04-30 02:41 | 30.68258 | -100.15075 | 32021 ft | 419 kts | 285° |
| 2026-04-30 02:42 | 30.69869 | -100.21627 | 32037 ft | 420 kts | 286° |
| 2026-04-30 02:42 | 30.71491 | -100.28232 | 32033 ft | 420 kts | 286° |
| 2026-04-30 02:43 | 30.73104 | -100.34821 | 32033 ft | 420 kts | 285° |
| 2026-04-30 02:43 | 30.74711 | -100.41409 | 32041 ft | 421 kts | 286° |
| 2026-04-30 02:44 | 30.76326 | -100.48051 | 32048 ft | 421 kts | 286° |
| 2026-04-30 02:44 | 30.77933 | -100.54668 | 32034 ft | 420 kts | 286° |
| 2026-04-30 02:45 | 30.79519 | -100.61224 | 32037 ft | 420 kts | 285° |
| 2026-04-30 02:45 | 30.81116 | -100.67841 | 32051 ft | 422 kts | 286° |
| 2026-04-30 02:46 | 30.82708 | -100.74454 | 32021 ft | 423 kts | 285° |
| 2026-04-30 02:46 | 30.84300 | -100.81087 | 32023 ft | 422 kts | 285° |
| 2026-04-30 02:47 | 30.85896 | -100.87744 | 32028 ft | 423 kts | 286° |
| 2026-04-30 02:47 | 30.87481 | -100.94378 | 32029 ft | 423 kts | 285° |
| 2026-04-30 02:48 | 30.89067 | -101.01033 | 32014 ft | 422 kts | 286° |
| 2026-04-30 02:48 | 30.90638 | -101.07643 | 32009 ft | 421 kts | 286° |
| 2026-04-30 02:49 | 30.92222 | -101.14324 | 32022 ft | 422 kts | 285° |
| 2026-04-30 02:49 | 30.93786 | -101.20944 | 32028 ft | 423 kts | 285° |
| 2026-04-30 02:50 | 30.95359 | -101.27604 | 32023 ft | 422 kts | 285° |
| 2026-04-30 02:50 | 30.96905 | -101.34176 | 32036 ft | 421 kts | 286° |
| 2026-04-30 02:51 | 30.98455 | -101.40779 | 32027 ft | 420 kts | 285° |
| 2026-04-30 02:51 | 31.00001 | -101.47381 | 32028 ft | 420 kts | 285° |
| 2026-04-30 02:52 | 31.01545 | -101.53986 | 32023 ft | 420 kts | 285° |
| 2026-04-30 02:52 | 31.03094 | -101.60638 | 32025 ft | 419 kts | 285° |
| 2026-04-30 02:53 | 31.04629 | -101.67239 | 32021 ft | 418 kts | 286° |
| 2026-04-30 02:53 | 31.06151 | -101.73813 | 32027 ft | 418 kts | 286° |
| 2026-04-30 02:54 | 31.07679 | -101.80424 | 32021 ft | 418 kts | 285° |
| 2026-04-30 02:54 | 31.09200 | -101.87017 | 32015 ft | 417 kts | 286° |
| 2026-04-30 02:55 | 31.10708 | -101.93569 | 32011 ft | 418 kts | 286° |
| 2026-04-30 02:55 | 31.12215 | -102.00137 | 32014 ft | 417 kts | 286° |
| 2026-04-30 02:56 | 31.13712 | -102.06675 | 32010 ft | 415 kts | 285° |
| 2026-04-30 02:56 | 31.15224 | -102.13292 | 32018 ft | 414 kts | 285° |
| 2026-04-30 02:57 | 31.16727 | -102.19892 | 32019 ft | 414 kts | 285° |
| 2026-04-30 02:57 | 31.18207 | -102.26407 | 32016 ft | 414 kts | 285° |
| 2026-04-30 02:58 | 31.19687 | -102.32944 | 32018 ft | 414 kts | 284° |
| 2026-04-30 02:58 | 31.21174 | -102.39532 | 32018 ft | 414 kts | 284° |
| 2026-04-30 02:59 | 31.22656 | -102.46099 | 32021 ft | 414 kts | 284° |
| 2026-04-30 02:59 | 31.24130 | -102.52651 | 32011 ft | 414 kts | 285° |
| 2026-04-30 03:00 | 31.25595 | -102.59187 | 32026 ft | 414 kts | 285° |
| 2026-04-30 03:00 | 31.27069 | -102.65775 | 32022 ft | 415 kts | 283° |
| 2026-04-30 03:01 | 31.28528 | -102.72315 | 32022 ft | 415 kts | 284° |
| 2026-04-30 03:01 | 31.29998 | -102.78916 | 32023 ft | 414 kts | 284° |
| 2026-04-30 03:02 | 31.31458 | -102.85499 | 32025 ft | 414 kts | 284° |
| 2026-04-30 03:02 | 31.32917 | -102.92084 | 32023 ft | 415 kts | 283° |
| 2026-04-30 03:03 | 31.34365 | -102.98647 | 32019 ft | 414 kts | 283° |
| 2026-04-30 03:03 | 31.36536 | -103.08504 | 32030 ft | 414 kts | 283° |
| 2026-04-30 03:04 | 31.37974 | -103.15060 | 32038 ft | 414 kts | 283° |
| 2026-04-30 03:04 | 31.39418 | -103.21660 | 32039 ft | 415 kts | 283° |
| 2026-04-30 03:05 | 31.40848 | -103.28213 | 32011 ft | 415 kts | 283° |
| 2026-04-30 03:05 | 31.42284 | -103.34813 | 31984 ft | 415 kts | 283° |
| 2026-04-30 03:06 | 31.43723 | -103.41460 | 31951 ft | 414 kts | 283° |
| 2026-04-30 03:06 | 31.45146 | -103.48038 | 31959 ft | 414 kts | 283° |
| 2026-04-30 03:07 | 31.46563 | -103.54614 | 31961 ft | 414 kts | 283° |
| 2026-04-30 03:07 | 31.47737 | -103.61218 | 31966 ft | 413 kts | 279° |
| 2026-04-30 03:08 | 31.48650 | -103.67896 | 31962 ft | 414 kts | 279° |
| 2026-04-30 03:08 | 31.49565 | -103.74573 | 32082 ft | 413 kts | 279° |
| 2026-04-30 03:09 | 31.50479 | -103.81273 | 32049 ft | 414 kts | 278° |
| 2026-04-30 03:09 | 31.51391 | -103.87975 | 32077 ft | 412 kts | 278° |
| 2026-04-30 03:10 | 31.52295 | -103.94636 | 32071 ft | 412 kts | 279° |
| 2026-04-30 03:10 | 31.53199 | -104.01325 | 32075 ft | 412 kts | 278° |
| 2026-04-30 03:11 | 31.54107 | -104.08044 | 32071 ft | 413 kts | 278° |
| 2026-04-30 03:11 | 31.55008 | -104.14730 | 32087 ft | 412 kts | 278° |
| 2026-04-30 03:12 | 31.55910 | -104.21448 | 32077 ft | 412 kts | 278° |
| 2026-04-30 03:12 | 31.56794 | -104.28088 | 32096 ft | 413 kts | 278° |
| 2026-04-30 03:13 | 31.57691 | -104.34826 | 32110 ft | 413 kts | 278° |
| 2026-04-30 03:13 | 31.58572 | -104.41489 | 32118 ft | 414 kts | 278° |
| 2026-04-30 03:14 | 31.59450 | -104.48135 | 32129 ft | 414 kts | 278° |
| 2026-04-30 03:14 | 31.60343 | -104.54921 | 32122 ft | 414 kts | 277° |
| 2026-04-30 03:15 | 31.61224 | -104.61643 | 32134 ft | 414 kts | 278° |
| 2026-04-30 03:15 | 31.62097 | -104.68339 | 32138 ft | 415 kts | 278° |
| 2026-04-30 03:16 | 31.62981 | -104.75144 | 32150 ft | 414 kts | 277° |
| 2026-04-30 03:16 | 31.63846 | -104.81838 | 32154 ft | 414 kts | 278° |
| 2026-04-30 03:17 | 31.64704 | -104.88508 | 32152 ft | 414 kts | 277° |
| 2026-04-30 03:17 | 31.65559 | -104.95211 | 32145 ft | 414 kts | 277° |
| 2026-04-30 03:18 | 31.66420 | -105.01965 | 32124 ft | 414 kts | 277° |
| 2026-04-30 03:18 | 31.67272 | -105.08710 | 32119 ft | 415 kts | 276° |
| 2026-04-30 03:19 | 31.68135 | -105.15503 | 32126 ft | 415 kts | 277° |
| 2026-04-30 03:19 | 31.68987 | -105.22257 | 32132 ft | 415 kts | 277° |
| 2026-04-30 03:20 | 31.69834 | -105.29035 | 32138 ft | 415 kts | 277° |
| 2026-04-30 03:20 | 31.70672 | -105.35777 | 32150 ft | 415 kts | 277° |
| 2026-04-30 03:21 | 31.71514 | -105.42516 | 32147 ft | 414 kts | 277° |
| 2026-04-30 03:21 | 31.72350 | -105.49286 | 32151 ft | 414 kts | 277° |
| 2026-04-30 03:22 | 31.73180 | -105.56049 | 32164 ft | 413 kts | 277° |
| 2026-04-30 03:22 | 31.74003 | -105.62777 | 32177 ft | 413 kts | 276° |
| 2026-04-30 03:23 | 31.74831 | -105.69526 | 32185 ft | 415 kts | 277° |
| 2026-04-30 03:23 | 31.75645 | -105.76273 | 32198 ft | 414 kts | 276° |
| 2026-04-30 03:24 | 31.76465 | -105.83049 | 32189 ft | 413 kts | 276° |
| 2026-04-30 03:24 | 31.77270 | -105.89754 | 32190 ft | 413 kts | 276° |
| 2026-04-30 03:25 | 31.78079 | -105.96487 | 32176 ft | 412 kts | 276° |
| 2026-04-30 03:25 | 31.78878 | -106.03194 | 32181 ft | 412 kts | 276° |
| 2026-04-30 03:26 | 31.79678 | -106.09938 | 32010 ft | 413 kts | 276° |
| 2026-04-30 03:26 | 31.80462 | -106.16576 | 31995 ft | 411 kts | 276° |
| 2026-04-30 03:27 | 31.81246 | -106.23244 | 31995 ft | 412 kts | 276° |
| 2026-04-30 03:27 | 31.82396 | -106.29929 | 31990 ft | 416 kts | 285° |
| 2026-04-30 03:28 | 31.84526 | -106.36314 | 32430 ft | 414 kts | 289° |
| 2026-04-30 03:28 | 31.85639 | -106.39391 | 33167 ft | 402 kts | 289° |
| 2026-04-30 03:28 | 31.86714 | -106.42378 | 33856 ft | 394 kts | 288° |
| 2026-04-30 03:29 | 31.87799 | -106.45404 | 34009 ft | 397 kts | 288° |
| 2026-04-30 03:29 | 31.88877 | -106.48428 | 34017 ft | 402 kts | 288° |
| 2026-04-30 03:29 | 31.91045 | -106.54524 | 34029 ft | 409 kts | 289° |
| 2026-04-30 03:30 | 31.93254 | -106.60762 | 34028 ft | 413 kts | 288° |
| 2026-04-30 03:30 | 31.95458 | -106.67014 | 34052 ft | 414 kts | 288° |
| 2026-04-30 03:31 | 31.97673 | -106.73310 | 34053 ft | 414 kts | 288° |
| 2026-04-30 03:31 | 31.99881 | -106.79620 | 34047 ft | 413 kts | 288° |
| 2026-04-30 03:32 | 32.02063 | -106.85865 | 34085 ft | 414 kts | 288° |
| 2026-04-30 03:32 | 32.04259 | -106.92161 | 34105 ft | 415 kts | 289° |
| 2026-04-30 03:33 | 32.06454 | -106.98463 | 34123 ft | 414 kts | 288° |
| 2026-04-30 03:33 | 32.08638 | -107.04758 | 34126 ft | 413 kts | 288° |
| 2026-04-30 03:34 | 32.10828 | -107.11077 | 34120 ft | 413 kts | 288° |
| 2026-04-30 03:34 | 32.13022 | -107.17411 | 34127 ft | 415 kts | 288° |
| 2026-04-30 03:35 | 32.15210 | -107.23715 | 34144 ft | 413 kts | 288° |
| 2026-04-30 03:35 | 32.17397 | -107.30037 | 34139 ft | 414 kts | 288° |
| 2026-04-30 03:36 | 32.19602 | -107.36430 | 34137 ft | 413 kts | 288° |
| 2026-04-30 03:36 | 32.20674 | -107.39548 | 34264 ft | 412 kts | 288° |
| 2026-04-30 03:36 | 32.21703 | -107.42548 | 34977 ft | 400 kts | 288° |
| 2026-04-30 03:37 | 32.22729 | -107.45534 | 35865 ft | 387 kts | 287° |
| 2026-04-30 03:37 | 32.23730 | -107.48460 | 36141 ft | 387 kts | 287° |
| 2026-04-30 03:37 | 32.25764 | -107.54444 | 36067 ft | 396 kts | 287° |
| 2026-04-30 03:38 | 32.27839 | -107.60593 | 36060 ft | 401 kts | 286° |
| 2026-04-30 03:38 | 32.29462 | -107.66943 | 36062 ft | 403 kts | 282° |
| 2026-04-30 03:39 | 32.31050 | -107.73360 | 36059 ft | 404 kts | 282° |
| 2026-04-30 03:39 | 32.32634 | -107.79765 | 36055 ft | 403 kts | 282° |
| 2026-04-30 03:40 | 32.34206 | -107.86130 | 36072 ft | 403 kts | 282° |
| 2026-04-30 03:40 | 32.35774 | -107.92488 | 36133 ft | 403 kts | 282° |
| 2026-04-30 03:41 | 32.37349 | -107.98880 | 36185 ft | 403 kts | 283° |
| 2026-04-30 03:41 | 32.38920 | -108.05243 | 36208 ft | 403 kts | 282° |
| 2026-04-30 03:42 | 32.40493 | -108.11636 | 36186 ft | 402 kts | 282° |
| 2026-04-30 03:42 | 32.42064 | -108.18034 | 36206 ft | 403 kts | 282° |
| 2026-04-30 03:43 | 32.43628 | -108.24426 | 36165 ft | 404 kts | 282° |
| 2026-04-30 03:43 | 32.45174 | -108.30772 | 36245 ft | 401 kts | 282° |
| 2026-04-30 03:44 | 32.46726 | -108.37154 | 36217 ft | 403 kts | 282° |
| 2026-04-30 03:44 | 32.48272 | -108.43528 | 36243 ft | 404 kts | 282° |
| 2026-04-30 03:45 | 32.49836 | -108.49994 | 36230 ft | 404 kts | 282° |
| 2026-04-30 03:45 | 32.51379 | -108.56394 | 36222 ft | 403 kts | 282° |
| 2026-04-30 03:46 | 32.52925 | -108.62820 | 36208 ft | 401 kts | 282° |
| 2026-04-30 03:46 | 32.54459 | -108.69215 | 36199 ft | 403 kts | 281° |
| 2026-04-30 03:47 | 32.55993 | -108.75617 | 36189 ft | 404 kts | 281° |
| 2026-04-30 03:47 | 32.57527 | -108.82049 | 36182 ft | 404 kts | 281° |
| 2026-04-30 03:48 | 32.59052 | -108.88467 | 36194 ft | 404 kts | 281° |
| 2026-04-30 03:48 | 32.60582 | -108.94920 | 36177 ft | 404 kts | 282° |
| 2026-04-30 03:49 | 32.62111 | -109.01383 | 36161 ft | 405 kts | 282° |
| 2026-04-30 03:49 | 32.63634 | -109.07835 | 36169 ft | 404 kts | 281° |
| 2026-04-30 03:50 | 32.65151 | -109.14274 | 36172 ft | 404 kts | 281° |
| 2026-04-30 03:50 | 32.66666 | -109.20720 | 36158 ft | 404 kts | 281° |
| 2026-04-30 03:51 | 32.68179 | -109.27174 | 36167 ft | 404 kts | 281° |
| 2026-04-30 03:51 | 32.69694 | -109.33651 | 36137 ft | 405 kts | 281° |
| 2026-04-30 03:52 | 32.71198 | -109.40095 | 36129 ft | 404 kts | 281° |
| 2026-04-30 03:52 | 32.72699 | -109.46539 | 36084 ft | 405 kts | 281° |
| 2026-04-30 03:53 | 32.74210 | -109.53057 | 36062 ft | 404 kts | 281° |
| 2026-04-30 03:53 | 32.75705 | -109.59512 | 35983 ft | 404 kts | 281° |
| 2026-04-30 03:54 | 32.77195 | -109.65958 | 35996 ft | 404 kts | 281° |
| 2026-04-30 03:54 | 32.78694 | -109.72465 | 35992 ft | 404 kts | 281° |
| 2026-04-30 03:55 | 32.80181 | -109.78931 | 35998 ft | 403 kts | 280° |
| 2026-04-30 03:55 | 32.81676 | -109.85460 | 36143 ft | 402 kts | 280° |
| 2026-04-30 03:56 | 32.83154 | -109.91922 | 36129 ft | 403 kts | 280° |
| 2026-04-30 03:56 | 32.84626 | -109.98393 | 36146 ft | 403 kts | 280° |
| 2026-04-30 03:57 | 32.86097 | -110.04855 | 36137 ft | 404 kts | 280° |
| 2026-04-30 03:57 | 32.87566 | -110.11330 | 36119 ft | 404 kts | 280° |
| 2026-04-30 03:58 | 32.89036 | -110.17821 | 36113 ft | 404 kts | 280° |
| 2026-04-30 03:58 | 32.90501 | -110.24309 | 36116 ft | 404 kts | 279° |
| 2026-04-30 03:59 | 32.91967 | -110.30821 | 36117 ft | 405 kts | 280° |
| 2026-04-30 03:59 | 32.93423 | -110.37303 | 36105 ft | 405 kts | 279° |
| 2026-04-30 04:00 | 32.94874 | -110.43782 | 36103 ft | 405 kts | 279° |
| 2026-04-30 04:00 | 32.96321 | -110.50262 | 36101 ft | 405 kts | 280° |
| 2026-04-30 04:01 | 32.97782 | -110.56821 | 36081 ft | 405 kts | 279° |
| 2026-04-30 04:01 | 32.99227 | -110.63321 | 36068 ft | 404 kts | 280° |
| 2026-04-30 04:02 | 33.00662 | -110.69795 | 36051 ft | 404 kts | 279° |
| 2026-04-30 04:02 | 33.02098 | -110.76284 | 36046 ft | 403 kts | 279° |
| 2026-04-30 04:03 | 33.03519 | -110.82735 | 36056 ft | 403 kts | 279° |
| 2026-04-30 04:03 | 33.04953 | -110.89261 | 36072 ft | 403 kts | 279° |
| 2026-04-30 04:04 | 33.06383 | -110.95784 | 36070 ft | 404 kts | 278° |
| 2026-04-30 04:04 | 33.07814 | -111.02328 | 36075 ft | 404 kts | 279° |
| 2026-04-30 04:05 | 33.09229 | -111.08819 | 36063 ft | 404 kts | 279° |
| 2026-04-30 04:05 | 33.10657 | -111.15386 | 36043 ft | 405 kts | 278° |
| 2026-04-30 04:06 | 33.12069 | -111.21899 | 36032 ft | 406 kts | 279° |
| 2026-04-30 04:06 | 33.13478 | -111.28415 | 35988 ft | 405 kts | 279° |
| 2026-04-30 04:07 | 33.14881 | -111.34926 | 35995 ft | 405 kts | 279° |
| 2026-04-30 04:08 | 33.16984 | -111.44716 | 35976 ft | 406 kts | 279° |
| 2026-04-30 04:08 | 33.18396 | -111.51311 | 35961 ft | 406 kts | 278° |
| 2026-04-30 04:09 | 33.19795 | -111.57865 | 35945 ft | 406 kts | 279° |
| 2026-04-30 04:09 | 33.21193 | -111.64431 | 35946 ft | 406 kts | 278° |
| 2026-04-30 04:10 | 33.22586 | -111.70994 | 35943 ft | 406 kts | 278° |
| 2026-04-30 04:10 | 33.23978 | -111.77571 | 35948 ft | 405 kts | 278° |
| 2026-04-30 04:11 | 33.25361 | -111.84122 | 35942 ft | 405 kts | 277° |
| 2026-04-30 04:11 | 33.26738 | -111.90675 | 35941 ft | 406 kts | 278° |
| 2026-04-30 04:12 | 33.28115 | -111.97235 | 35942 ft | 405 kts | 277° |
| 2026-04-30 04:12 | 33.29491 | -112.03811 | 35933 ft | 404 kts | 278° |
| 2026-04-30 04:13 | 33.30848 | -112.10305 | 35922 ft | 403 kts | 277° |
| 2026-04-30 04:13 | 33.32212 | -112.16861 | 35919 ft | 403 kts | 277° |
| 2026-04-30 04:14 | 33.33565 | -112.23381 | 35916 ft | 404 kts | 277° |
| 2026-04-30 04:14 | 33.34926 | -112.29957 | 35919 ft | 405 kts | 277° |
| 2026-04-30 04:15 | 33.36290 | -112.36566 | 35922 ft | 405 kts | 277° |
| 2026-04-30 04:15 | 33.37642 | -112.43140 | 35920 ft | 405 kts | 277° |
| 2026-04-30 04:16 | 33.39005 | -112.49777 | 35922 ft | 406 kts | 277° |
| 2026-04-30 04:16 | 33.40353 | -112.56368 | 35937 ft | 406 kts | 276° |
| 2026-04-30 04:17 | 33.41696 | -112.62957 | 35925 ft | 406 kts | 277° |
| 2026-04-30 04:17 | 33.43026 | -112.69496 | 35948 ft | 405 kts | 276° |
| 2026-04-30 04:18 | 33.44365 | -112.76095 | 35938 ft | 405 kts | 276° |
| 2026-04-30 04:18 | 33.45693 | -112.82662 | 35957 ft | 404 kts | 276° |
| 2026-04-30 04:19 | 33.46963 | -112.89217 | 35949 ft | 405 kts | 276° |
| 2026-04-30 04:19 | 33.48239 | -112.95846 | 35936 ft | 407 kts | 275° |
| 2026-04-30 04:20 | 33.49513 | -113.02482 | 35938 ft | 408 kts | 275° |
| 2026-04-30 04:20 | 33.50786 | -113.09131 | 35938 ft | 406 kts | 275° |
| 2026-04-30 04:21 | 33.52054 | -113.15767 | 35941 ft | 406 kts | 275° |
| 2026-04-30 04:21 | 33.53311 | -113.22370 | 35943 ft | 406 kts | 275° |
| 2026-04-30 04:22 | 33.54566 | -113.28987 | 35942 ft | 406 kts | 276° |
| 2026-04-30 04:22 | 33.55824 | -113.35641 | 35958 ft | 406 kts | 276° |
| 2026-04-30 04:23 | 33.57075 | -113.42275 | 35965 ft | 405 kts | 276° |
| 2026-04-30 04:23 | 33.58313 | -113.48865 | 35975 ft | 403 kts | 276° |
| 2026-04-30 04:24 | 33.59547 | -113.55457 | 35977 ft | 403 kts | 275° |
| 2026-04-30 04:24 | 33.60783 | -113.62084 | 35967 ft | 404 kts | 276° |
| 2026-04-30 04:25 | 33.62015 | -113.68709 | 35963 ft | 403 kts | 275° |
| 2026-04-30 04:25 | 33.63234 | -113.75282 | 35959 ft | 402 kts | 275° |
| 2026-04-30 04:26 | 33.64453 | -113.81870 | 35964 ft | 401 kts | 276° |
| 2026-04-30 04:26 | 33.65662 | -113.88425 | 35957 ft | 400 kts | 274° |
| 2026-04-30 04:27 | 33.66871 | -113.94998 | 35961 ft | 401 kts | 275° |
| 2026-04-30 04:27 | 33.68074 | -114.01573 | 35964 ft | 401 kts | 275° |
| 2026-04-30 04:28 | 33.69267 | -114.08101 | 35950 ft | 401 kts | 275° |
| 2026-04-30 04:28 | 33.70470 | -114.14705 | 35941 ft | 403 kts | 274° |
| 2026-04-30 04:29 | 33.71663 | -114.21278 | 35939 ft | 403 kts | 275° |
| 2026-04-30 04:29 | 33.72858 | -114.27878 | 35919 ft | 404 kts | 276° |
| 2026-04-30 04:30 | 33.74056 | -114.34508 | 35904 ft | 403 kts | 275° |
| 2026-04-30 04:30 | 33.75213 | -114.40971 | 35902 ft | 404 kts | 275° |
| 2026-04-30 04:31 | 33.76407 | -114.47628 | 35888 ft | 404 kts | 275° |
| 2026-04-30 04:31 | 33.77562 | -114.54202 | 35901 ft | 402 kts | 272° |
| 2026-04-30 04:32 | 33.78045 | -114.60871 | 35911 ft | 399 kts | 269° |
| 2026-04-30 04:32 | 33.78424 | -114.67555 | 35910 ft | 400 kts | 268° |
| 2026-04-30 04:33 | 33.78804 | -114.74262 | 35915 ft | 401 kts | 268° |
| 2026-04-30 04:33 | 33.79184 | -114.80981 | 35911 ft | 401 kts | 268° |
| 2026-04-30 04:34 | 33.79561 | -114.87716 | 35912 ft | 401 kts | 268° |
| 2026-04-30 04:34 | 33.79966 | -114.94521 | 35909 ft | 404 kts | 270° |
| 2026-04-30 04:35 | 33.81437 | -115.01202 | 35896 ft | 416 kts | 281° |
| 2026-04-30 04:35 | 33.83380 | -115.07809 | 35914 ft | 417 kts | 281° |
| 2026-04-30 04:36 | 33.85303 | -115.14442 | 35909 ft | 419 kts | 281° |
| 2026-04-30 04:36 | 33.87204 | -115.21058 | 35918 ft | 419 kts | 282° |
| 2026-04-30 04:37 | 33.89109 | -115.27737 | 35925 ft | 419 kts | 281° |
| 2026-04-30 04:37 | 33.91008 | -115.34444 | 35943 ft | 421 kts | 281° |
| 2026-04-30 04:38 | 33.92894 | -115.41137 | 35974 ft | 421 kts | 282° |
| 2026-04-30 04:38 | 33.94786 | -115.47882 | 35969 ft | 422 kts | 281° |
| 2026-04-30 04:39 | 33.96664 | -115.54607 | 35991 ft | 422 kts | 281° |
| 2026-04-30 04:39 | 33.98535 | -115.61327 | 35992 ft | 422 kts | 281° |
| 2026-04-30 04:40 | 34.00413 | -115.68093 | 35998 ft | 421 kts | 281° |
| 2026-04-30 04:40 | 34.02261 | -115.74777 | 36000 ft | 421 kts | 282° |
| 2026-04-30 04:41 | 34.04118 | -115.81508 | 36035 ft | 421 kts | 280° |
| 2026-04-30 04:41 | 34.05974 | -115.88261 | 36051 ft | 422 kts | 282° |
| 2026-04-30 04:42 | 34.07817 | -115.94985 | 36052 ft | 423 kts | 282° |
| 2026-04-30 04:42 | 34.09669 | -116.01758 | 36074 ft | 423 kts | 281° |
| 2026-04-30 04:43 | 34.11408 | -116.08135 | 36081 ft | 424 kts | 281° |
| 2026-04-30 04:43 | 34.13243 | -116.14870 | 36069 ft | 425 kts | 282° |
| 2026-04-30 04:44 | 34.15094 | -116.21688 | 36051 ft | 425 kts | 281° |
| 2026-04-30 04:44 | 34.16936 | -116.28496 | 36051 ft | 425 kts | 282° |
| 2026-04-30 04:45 | 34.18790 | -116.35359 | 36072 ft | 426 kts | 282° |
| 2026-04-30 04:45 | 34.20636 | -116.42217 | 36048 ft | 428 kts | 282° |
| 2026-04-30 04:46 | 34.22476 | -116.49065 | 36084 ft | 427 kts | 282° |
| 2026-04-30 04:46 | 34.24318 | -116.55939 | 36115 ft | 428 kts | 282° |
| 2026-04-30 04:47 | 34.26168 | -116.62862 | 36136 ft | 431 kts | 282° |
| 2026-04-30 04:47 | 34.27093 | -116.66323 | 35881 ft | 432 kts | 281° |
| 2026-04-30 04:47 | 34.27896 | -116.69321 | 35457 ft | 424 kts | 282° |
| 2026-04-30 04:47 | 34.28861 | -116.72930 | 34930 ft | 418 kts | 282° |
| 2026-04-30 04:48 | 34.29758 | -116.76305 | 34373 ft | 415 kts | 282° |
| 2026-04-30 04:48 | 34.30631 | -116.79595 | 33834 ft | 414 kts | 282° |
| 2026-04-30 04:48 | 34.31516 | -116.82935 | 33275 ft | 414 kts | 282° |
| 2026-04-30 04:48 | 34.32401 | -116.86275 | 32736 ft | 416 kts | 282° |
| 2026-04-30 04:49 | 34.33292 | -116.89644 | 32197 ft | 417 kts | 283° |
| 2026-04-30 04:49 | 34.34184 | -116.93014 | 31606 ft | 421 kts | 284° |
| 2026-04-30 04:49 | 34.35084 | -116.96419 | 31026 ft | 425 kts | 284° |
| 2026-04-30 04:49 | 34.35991 | -116.99850 | 30427 ft | 430 kts | 285° |
| 2026-04-30 04:50 | 34.36892 | -117.03260 | 29825 ft | 428 kts | 285° |
| 2026-04-30 04:50 | 34.37803 | -117.06702 | 29321 ft | 428 kts | 285° |
| 2026-04-30 04:50 | 34.38721 | -117.10184 | 28686 ft | 436 kts | 287° |
| 2026-04-30 04:50 | 34.39661 | -117.13753 | 28118 ft | 445 kts | 287° |
| 2026-04-30 04:51 | 34.40605 | -117.17334 | 27520 ft | 450 kts | 287° |
| 2026-04-30 04:51 | 34.41563 | -117.20962 | 26907 ft | 450 kts | 287° |
| 2026-04-30 04:51 | 34.42503 | -117.24535 | 26325 ft | 447 kts | 288° |
| 2026-04-30 04:51 | 34.43451 | -117.28145 | 25713 ft | 445 kts | 288° |
| 2026-04-30 04:52 | 34.44380 | -117.31687 | 25145 ft | 443 kts | 289° |
| 2026-04-30 04:52 | 34.45319 | -117.35272 | 24539 ft | 442 kts | 290° |
| 2026-04-30 04:52 | 34.46244 | -117.38815 | 23949 ft | 441 kts | 290° |
| 2026-04-30 04:52 | 34.47163 | -117.42339 | 23389 ft | 440 kts | 290° |
| 2026-04-30 04:53 | 34.48097 | -117.45923 | 22776 ft | 439 kts | 291° |
| 2026-04-30 04:53 | 34.49011 | -117.49442 | 22223 ft | 436 kts | 291° |
| 2026-04-30 04:53 | 34.49916 | -117.52926 | 21637 ft | 434 kts | 291° |
| 2026-04-30 04:53 | 34.50824 | -117.56428 | 21037 ft | 432 kts | 291° |
| 2026-04-30 04:54 | 34.51738 | -117.59945 | 20454 ft | 445 kts | 291° |
| 2026-04-30 04:54 | 34.52692 | -117.63610 | 19824 ft | 456 kts | 290° |
| 2026-04-30 04:54 | 34.53672 | -117.67374 | 19224 ft | 458 kts | 290° |
| 2026-04-30 04:54 | 34.54453 | -117.70382 | 18703 ft | 454 kts | 290° |
| 2026-04-30 04:55 | 34.55442 | -117.74202 | 18105 ft | 450 kts | 289° |
| 2026-04-30 04:55 | 34.56423 | -117.77998 | 17462 ft | 445 kts | 290° |
| 2026-04-30 04:55 | 34.57350 | -117.81597 | 16871 ft | 442 kts | 289° |
| 2026-04-30 04:55 | 34.58260 | -117.85133 | 16284 ft | 438 kts | 289° |
| 2026-04-30 04:56 | 34.59171 | -117.88680 | 15700 ft | 435 kts | 289° |
| 2026-04-30 04:56 | 34.60060 | -117.92145 | 15148 ft | 430 kts | 289° |
| 2026-04-30 04:56 | 34.60947 | -117.95612 | 14564 ft | 426 kts | 289° |
| 2026-04-30 04:56 | 34.61825 | -117.99049 | 14003 ft | 423 kts | 289° |
| 2026-04-30 04:57 | 34.62652 | -118.02451 | 13449 ft | 419 kts | 285° |
| 2026-04-30 04:57 | 34.63004 | -118.05984 | 12947 ft | 418 kts | 271° |
| 2026-04-30 04:57 | 34.62574 | -118.09448 | 12388 ft | 419 kts | 258° |
| 2026-04-30 04:57 | 34.61875 | -118.12855 | 11727 ft | 404 kts | 258° |
| 2026-04-30 04:58 | 34.61195 | -118.16121 | 11199 ft | 382 kts | 258° |
| 2026-04-30 04:58 | 34.60554 | -118.19157 | 10710 ft | 364 kts | 258° |
| 2026-04-30 04:58 | 34.59927 | -118.22087 | 10233 ft | 349 kts | 258° |
| 2026-04-30 04:58 | 34.59317 | -118.24908 | 9771 ft | 337 kts | 257° |
| 2026-04-30 04:59 | 34.58724 | -118.27622 | 9331 ft | 326 kts | 257° |
| 2026-04-30 04:59 | 34.58144 | -118.30260 | 8900 ft | 317 kts | 257° |
| 2026-04-30 04:59 | 34.57573 | -118.32841 | 8464 ft | 308 kts | 257° |
| 2026-04-30 04:59 | 34.57023 | -118.35310 | 8117 ft | 298 kts | 257° |
| 2026-04-30 05:00 | 34.56484 | -118.37702 | 8031 ft | 284 kts | 257° |
| 2026-04-30 05:00 | 34.55957 | -118.40039 | 8009 ft | 287 kts | 257° |
| 2026-04-30 05:00 | 34.55426 | -118.42395 | 8005 ft | 288 kts | 258° |
| 2026-04-30 05:00 | 34.54892 | -118.44778 | 7733 ft | 289 kts | 258° |
| 2026-04-30 05:01 | 34.54214 | -118.47076 | 7416 ft | 286 kts | 245° |
| 2026-04-30 05:01 | 34.52998 | -118.48993 | 7075 ft | 287 kts | 224° |
| 2026-04-30 05:01 | 34.51268 | -118.50201 | 6730 ft | 287 kts | 204° |
| 2026-04-30 05:01 | 34.49382 | -118.51098 | 6300 ft | 285 kts | 203° |
| 2026-04-30 05:02 | 34.47480 | -118.51570 | 6009 ft | 280 kts | 182° |
| 2026-04-30 05:02 | 34.45509 | -118.51453 | 5628 ft | 281 kts | 178° |
| 2026-04-30 05:02 | 34.43574 | -118.51309 | 5302 ft | 276 kts | 178° |
| 2026-04-30 05:02 | 34.41624 | -118.51161 | 4979 ft | 275 kts | 178° |
| 2026-04-30 05:03 | 34.39717 | -118.50976 | 4868 ft | 276 kts | 176° |
| 2026-04-30 05:03 | 34.37786 | -118.50738 | 4437 ft | 278 kts | 176° |
| 2026-04-30 05:03 | 34.35857 | -118.50521 | 4008 ft | 272 kts | 176° |
| 2026-04-30 05:03 | 34.34005 | -118.50341 | 3599 ft | 256 kts | 178° |
| 2026-04-30 05:04 | 34.32325 | -118.50190 | 3250 ft | 229 kts | 178° |
| 2026-04-30 05:04 | 34.30803 | -118.50042 | 2940 ft | 207 kts | 177° |
| 2026-04-30 05:04 | 34.29420 | -118.49906 | 2577 ft | 187 kts | 177° |
| 2026-04-30 05:04 | 34.28209 | -118.49789 | 2356 ft | 161 kts | 177° |
| 2026-04-30 05:05 | 34.27187 | -118.49686 | 2122 ft | 140 kts | 176° |
| 2026-04-30 05:05 | 34.26224 | -118.49594 | 1905 ft | 137 kts | 176° |
| 2026-04-30 05:05 | 34.25283 | -118.49510 | 1690 ft | 130 kts | 177° |
| 2026-04-30 05:06 | 34.23519 | -118.49297 | 1278 ft | 124 kts | 174° |
| 2026-04-30 05:06 | 34.22660 | -118.49198 | 1087 ft | 124 kts | 175° |
| 2026-04-30 05:06 | 34.21812 | -118.49115 | 872 ft | 119 kts | 174° |
| 2026-04-30 05:06 | 34.21041 | -118.49045 | 806 ft | 98 kts | 175° |
| 2026-04-30 05:07 | 34.20570 | -118.48993 | 805 ft | 31 kts | 164° |
| 2026-04-30 05:07 | 34.20414 | -118.48910 | 805 ft | 15 kts | 144° |
| 2026-04-30 05:07 | 34.20415 | -118.48852 | 805 ft | 15 kts | 17° |
| 2026-04-30 05:07 | 34.20499 | -118.48843 | 804 ft | 11 kts | 6° |
| 2026-04-30 05:08 | 34.20565 | -118.48816 | 804 ft | 9 kts | 72° |
| 2026-04-30 05:08 | 34.20568 | -118.48753 | 804 ft | 7 kts | 91° |
| 2026-04-30 05:08 | 34.20586 | -118.48707 | 804 ft | 4 kts | 26° |
| 2026-04-30 05:08 | 34.20585 | -118.48694 | 804 ft | 1 kts | 169° |
| 2026-04-30 05:09 | 34.20581 | -118.48694 | 804 ft | 0 kts | 180° |